CMA CGM Opal — A8RV3 — position and weather

sailwx.info

Track history (hours):
 
Tides and Currents Weather Stations Pressure Air Temp Water Temp Dewpoint Dewpoint Depression Visibility Wind Speed Wind Dir Waves Ship Positions

CMA CGM Opal

Last reported at 2017-Nov-07 21:49 UTC. Time now 2017-Nov-19 01:10 UTC.
Position N 01°19' E 103°18'.
Warning: this ship's position is 11 days out of date.

Length 258 m; draft 12.3 m.

Type: Ship (hazmat cat C). MMSI: 636014168.

Date/timePositionNaut miles runAvg speedWind from/ knotsBaromVisibWave heightAir tempDewpointWater temp
2017-Nov-07 21:49N 01°19' E 103°18'516.2
2017-Nov-07 21:30N 01°16' E 103°22'815.5
2017-Nov-07 21:01N 01°13' E 103°29'815.1
2017-Nov-07 20:30N 01°11' E 103°37'3 6.2
2017-Nov-07 19:59N 01°12' E 103°40'4 7.9
2017-Nov-07 19:30N 01°15' E 103°43'4 8.1
2017-Nov-07 19:00N 01°15' E 103°47'1 2.2
2017-Nov-07 18:30N 01°16' E 103°48'0 0.0
2017-Nov-07 17:58N 01°16' E 103°48'0 0.0
2017-Nov-07 17:28N 01°16' E 103°48'0 0.0
2017-Nov-07 16:58N 01°16' E 103°48'0 0.0
2017-Nov-07 16:28N 01°16' E 103°48'0 0.0
2017-Nov-07 15:58N 01°16' E 103°48'0 0.0
2017-Nov-07 15:28N 01°16' E 103°48'0 0.0
2017-Nov-07 14:58N 01°16' E 103°48'0 0.0
2017-Nov-07 14:28N 01°16' E 103°48'0 0.0
2017-Nov-07 13:58N 01°16' E 103°48'0 0.0
2017-Nov-07 13:28N 01°16' E 103°48'0 0.0
2017-Nov-07 12:58N 01°16' E 103°48'0 0.0
2017-Nov-07 12:25N 01°16' E 103°48'0 0.0
2017-Nov-07 11:58N 01°16' E 103°48'0 0.0
2017-Nov-07 11:22N 01°16' E 103°48'0 0.0
2017-Nov-07 10:58N 01°16' E 103°48'0 0.0
2017-Nov-07 10:28N 01°16' E 103°48'0 0.0
2017-Nov-07 09:58N 01°16' E 103°48'0 0.0
2017-Nov-07 09:28N 01°16' E 103°48'0 0.0
2017-Nov-07 08:58N 01°16' E 103°48'0 0.0
2017-Nov-07 08:28N 01°16' E 103°48'0 0.0
2017-Nov-07 08:00N 01°16' E 103°48'1 1.6
2017-Nov-07 07:30N 01°15' E 103°48'2 4.2
2017-Nov-07 07:01N 01°15' E 103°46'4 8.6
2017-Nov-07 06:31N 01°13' E 103°42'5 9.6
2017-Nov-07 05:59N 01°12' E 103°37'3 5.4
2017-Nov-07 05:31N 01°12' E 103°34'2 4.8
2017-Nov-07 05:01N 01°11' E 103°32'2 4.7
2017-Nov-07 04:31N 01°10' E 103°30'0 0.5
2017-Nov-07 04:01N 01°10' E 103°30'0 0.3
2017-Nov-07 03:31N 01°10' E 103°29'0 0.2
2017-Nov-07 03:01N 01°10' E 103°30'0 0.4
2017-Nov-07 02:30N 01°10' E 103°30'0 0.9
2017-Nov-07 02:01N 01°10' E 103°30'1 1.6
2017-Nov-07 01:31N 01°10' E 103°31'1 1.9
2017-Nov-07 00:59N 01°10' E 103°32'1 3.0
2017-Nov-07 00:31N 01°11' E 103°30'3 5.6
2017-Nov-07 00:01N 01°11' E 103°28'1 1.7
2017-Nov-06 23:30N 01°11' E 103°27'1 1.3
2017-Nov-06 23:00N 01°11' E 103°28'1 1.3
2017-Nov-06 22:30N 01°11' E 103°29'0 1.0
2017-Nov-06 22:00N 01°11' E 103°29'0 1.0
2017-Nov-06 21:31N 01°11' E 103°30'0 0.8
2017-Nov-06 21:00N 01°11' E 103°30'0 0.8
2017-Nov-06 20:30N 01°10' E 103°30'12 0.6
2017-Nov-06 02:25N 01°22' E 103°33'0 0.0
2017-Nov-06 01:52N 01°22' E 103°33'0 0.0
2017-Nov-06 01:28N 01°22' E 103°33'0 0.0
2017-Nov-06 00:58N 01°22' E 103°33'0 0.0
2017-Nov-06 00:25N 01°22' E 103°33'0 0.0
2017-Nov-05 23:56N 01°22' E 103°33'0 0.9
2017-Nov-05 23:30N 01°22' E 103°33'510.1
2017-Nov-05 23:00N 01°17' E 103°33'4 8.3
2017-Nov-05 22:31N 01°13' E 103°34'612.8
2017-Nov-05 22:00N 01°11' E 103°40'611.7
2017-Nov-05 21:30N 01°09' E 103°46'918.8
2017-Nov-05 21:00N 01°13' E 103°54'918.4
2017-Nov-05 20:30N 01°16' E 104°03'1818.2
2017-Nov-05 19:30N 01°19' E 104°21'  
2017-Nov-02 08:30N 21°49' E 113°51'815.9
2017-Nov-02 08:00N 21°56' E 113°51'816.1
2017-Nov-02 07:30N 22°05' E 113°51'713.7
2017-Nov-02 07:00N 22°11' E 113°49'816.3
2017-Nov-02 06:30N 22°19' E 113°48'714.7
2017-Nov-02 06:00N 22°26' E 113°45'714.6
2017-Nov-02 05:30N 22°33' E 113°43'510.8
2017-Nov-02 05:00N 22°38' E 113°41'0 0.2
2017-Nov-02 04:28N 22°38' E 113°41'0 0.0
2017-Nov-02 03:58N 22°38' E 113°41'0 0.0
2017-Nov-02 03:28N 22°38' E 113°41'0 0.0
2017-Nov-02 02:58N 22°38' E 113°41'0 0.0
2017-Nov-02 02:28N 22°38' E 113°41'0 0.0
2017-Nov-02 01:46N 22°38' E 113°41'0 0.0
2017-Nov-02 01:22N 22°38' E 113°41'0 0.0
2017-Nov-02 00:49N 22°38' E 113°41'0 0.0
2017-Nov-02 00:25N 22°38' E 113°41'0 0.0
2017-Nov-01 23:55N 22°38' E 113°41'0 0.0
2017-Nov-01 23:28N 22°38' E 113°41'0 0.0
2017-Nov-01 22:58N 22°38' E 113°41'0 0.0
2017-Nov-01 21:49N 22°38' E 113°41'0 0.1
2017-Nov-01 21:31N 22°38' E 113°41'2 5.0
2017-Nov-01 21:01N 22°36' E 113°42'713.8
2017-Nov-01 20:30N 22°30' E 113°45'714.9
2017-Nov-01 20:00N 22°22' E 113°47'714.8
2017-Nov-01 19:30N 22°15' E 113°48'713.6
2017-Nov-01 19:00N 22°08' E 113°48'2 3.8
2017-Nov-01 18:30N 22°07' E 113°49'17 1.0
2017-Nov-01 02:01N 22°23' E 113°54'3 6.3
2017-Nov-01 01:30N 22°21' E 113°56'612.5
2017-Nov-01 01:01N 22°21' E 114°03'712.1
2017-Nov-01 00:26N 22°16' E 114°07'510.5
2017-Oct-31 23:59N 22°12' E 114°11'4 8.1
2017-Oct-31 23:29N 22°09' E 114°13'612.0
2017-Oct-31 23:00N 22°07' E 114°19'713.9
2017-Oct-31 22:31N 22°07' E 114°27'713.6
2017-Oct-31 22:00N 22°08' E 114°34'816.0
2017-Oct-31 21:31N 22°08' E 114°43'816.4
2017-Oct-31 21:01N 22°09' E 114°52'816.4
2017-Oct-31 20:31N 22°09' E 115°01'816.4
2017-Oct-31 20:00N 22°10' E 115°09'816.8
2017-Oct-31 19:31N 22°10' E 115°18'2320.1
2017-Oct-31 18:21N 22°12' E 115°43'1220.1
2017-Oct-31 17:44N 22°13' E 115°57'  
Track history (hours):
 
Tides and Currents Weather Stations Pressure Air Temp Water Temp Dewpoint Dewpoint Depression Visibility Wind Speed Wind Dir Waves Ship Positions

CMA CGM Opal

Last reported at 2017-Nov-07 21:49 UTC. Time now 2017-Nov-19 01:10 UTC.
Position N 01°19' E 103°18'.
Warning: this ship's position is 11 days out of date.

Length 258 m; draft 12.3 m.

Type: Ship (hazmat cat C). MMSI: 636014168.

Date/timePositionNaut miles runAvg speedWind from/ knotsBaromVisibWave heightAir tempDewpointWater temp
2017-Nov-07 21:49N 01°19' E 103°18'516.2
2017-Nov-07 21:30N 01°16' E 103°22'815.5
2017-Nov-07 21:01N 01°13' E 103°29'815.1
2017-Nov-07 20:30N 01°11' E 103°37'3 6.2
2017-Nov-07 19:59N 01°12' E 103°40'4 7.9
2017-Nov-07 19:30N 01°15' E 103°43'4 8.1
2017-Nov-07 19:00N 01°15' E 103°47'1 2.2
2017-Nov-07 18:30N 01°16' E 103°48'0 0.0
2017-Nov-07 17:58N 01°16' E 103°48'0 0.0
2017-Nov-07 17:28N 01°16' E 103°48'0 0.0
2017-Nov-07 16:58N 01°16' E 103°48'0 0.0
2017-Nov-07 16:28N 01°16' E 103°48'0 0.0
2017-Nov-07 15:58N 01°16' E 103°48'0 0.0
2017-Nov-07 15:28N 01°16' E 103°48'0 0.0
2017-Nov-07 14:58N 01°16' E 103°48'0 0.0
2017-Nov-07 14:28N 01°16' E 103°48'0 0.0
2017-Nov-07 13:58N 01°16' E 103°48'0 0.0
2017-Nov-07 13:28N 01°16' E 103°48'0 0.0
2017-Nov-07 12:58N 01°16' E 103°48'0 0.0
2017-Nov-07 12:25N 01°16' E 103°48'0 0.0
2017-Nov-07 11:58N 01°16' E 103°48'0 0.0
2017-Nov-07 11:22N 01°16' E 103°48'0 0.0
2017-Nov-07 10:58N 01°16' E 103°48'0 0.0
2017-Nov-07 10:28N 01°16' E 103°48'0 0.0
2017-Nov-07 09:58N 01°16' E 103°48'0 0.0
2017-Nov-07 09:28N 01°16' E 103°48'0 0.0
2017-Nov-07 08:58N 01°16' E 103°48'0 0.0
2017-Nov-07 08:28N 01°16' E 103°48'0 0.0
2017-Nov-07 08:00N 01°16' E 103°48'1 1.6
2017-Nov-07 07:30N 01°15' E 103°48'2 4.2
2017-Nov-07 07:01N 01°15' E 103°46'4 8.6
2017-Nov-07 06:31N 01°13' E 103°42'5 9.6
2017-Nov-07 05:59N 01°12' E 103°37'3 5.4
2017-Nov-07 05:31N 01°12' E 103°34'2 4.8
2017-Nov-07 05:01N 01°11' E 103°32'2 4.7
2017-Nov-07 04:31N 01°10' E 103°30'0 0.5
2017-Nov-07 04:01N 01°10' E 103°30'0 0.3
2017-Nov-07 03:31N 01°10' E 103°29'0 0.2
2017-Nov-07 03:01N 01°10' E 103°30'0 0.4
2017-Nov-07 02:30N 01°10' E 103°30'0 0.9
2017-Nov-07 02:01N 01°10' E 103°30'1 1.6
2017-Nov-07 01:31N 01°10' E 103°31'1 1.9
2017-Nov-07 00:59N 01°10' E 103°32'1 3.0
2017-Nov-07 00:31N 01°11' E 103°30'3 5.6
2017-Nov-07 00:01N 01°11' E 103°28'1 1.7
2017-Nov-06 23:30N 01°11' E 103°27'1 1.3
2017-Nov-06 23:00N 01°11' E 103°28'1 1.3
2017-Nov-06 22:30N 01°11' E 103°29'0 1.0
2017-Nov-06 22:00N 01°11' E 103°29'0 1.0
2017-Nov-06 21:31N 01°11' E 103°30'0 0.8
2017-Nov-06 21:00N 01°11' E 103°30'0 0.8
2017-Nov-06 20:30N 01°10' E 103°30'12 0.6
2017-Nov-06 02:25N 01°22' E 103°33'0 0.0
2017-Nov-06 01:52N 01°22' E 103°33'0 0.0
2017-Nov-06 01:28N 01°22' E 103°33'0 0.0
2017-Nov-06 00:58N 01°22' E 103°33'0 0.0
2017-Nov-06 00:25N 01°22' E 103°33'0 0.0
2017-Nov-05 23:56N 01°22' E 103°33'0 0.9
2017-Nov-05 23:30N 01°22' E 103°33'510.1
2017-Nov-05 23:00N 01°17' E 103°33'4 8.3
2017-Nov-05 22:31N 01°13' E 103°34'612.8
2017-Nov-05 22:00N 01°11' E 103°40'611.7
2017-Nov-05 21:30N 01°09' E 103°46'918.8
2017-Nov-05 21:00N 01°13' E 103°54'918.4
2017-Nov-05 20:30N 01°16' E 104°03'1818.2
2017-Nov-05 19:30N 01°19' E 104°21'  
2017-Nov-02 08:30N 21°49' E 113°51'815.9
2017-Nov-02 08:00N 21°56' E 113°51'816.1
2017-Nov-02 07:30N 22°05' E 113°51'713.7
2017-Nov-02 07:00N 22°11' E 113°49'816.3
2017-Nov-02 06:30N 22°19' E 113°48'714.7
2017-Nov-02 06:00N 22°26' E 113°45'714.6
2017-Nov-02 05:30N 22°33' E 113°43'510.8
2017-Nov-02 05:00N 22°38' E 113°41'0 0.2
2017-Nov-02 04:28N 22°38' E 113°41'0 0.0
2017-Nov-02 03:58N 22°38' E 113°41'0 0.0
2017-Nov-02 03:28N 22°38' E 113°41'0 0.0
2017-Nov-02 02:58N 22°38' E 113°41'0 0.0
2017-Nov-02 02:28N 22°38' E 113°41'0 0.0
2017-Nov-02 01:46N 22°38' E 113°41'0 0.0
2017-Nov-02 01:22N 22°38' E 113°41'0 0.0
2017-Nov-02 00:49N 22°38' E 113°41'0 0.0
2017-Nov-02 00:25N 22°38' E 113°41'0 0.0
2017-Nov-01 23:55N 22°38' E 113°41'0 0.0
2017-Nov-01 23:28N 22°38' E 113°41'0 0.0
2017-Nov-01 22:58N 22°38' E 113°41'0 0.0
2017-Nov-01 21:49N 22°38' E 113°41'0 0.1
2017-Nov-01 21:31N 22°38' E 113°41'2 5.0
2017-Nov-01 21:01N 22°36' E 113°42'713.8
2017-Nov-01 20:30N 22°30' E 113°45'714.9
2017-Nov-01 20:00N 22°22' E 113°47'714.8
2017-Nov-01 19:30N 22°15' E 113°48'713.6
2017-Nov-01 19:00N 22°08' E 113°48'2 3.8
2017-Nov-01 18:30N 22°07' E 113°49'17 1.0
2017-Nov-01 02:01N 22°23' E 113°54'3 6.3
2017-Nov-01 01:30N 22°21' E 113°56'612.5
2017-Nov-01 01:01N 22°21' E 114°03'712.1
2017-Nov-01 00:26N 22°16' E 114°07'510.5
2017-Oct-31 23:59N 22°12' E 114°11'4 8.1
2017-Oct-31 23:29N 22°09' E 114°13'612.0
2017-Oct-31 23:00N 22°07' E 114°19'713.9
2017-Oct-31 22:31N 22°07' E 114°27'713.6
2017-Oct-31 22:00N 22°08' E 114°34'816.0
2017-Oct-31 21:31N 22°08' E 114°43'816.4
2017-Oct-31 21:01N 22°09' E 114°52'816.4
2017-Oct-31 20:31N 22°09' E 115°01'816.4
2017-Oct-31 20:00N 22°10' E 115°09'816.8
2017-Oct-31 19:31N 22°10' E 115°18'2320.1
2017-Oct-31 18:21N 22°12' E 115°43'1220.1
2017-Oct-31 17:44N 22°13' E 115°57'  

Dump ship's entire track history